Time;durP1;ratioP1;P1;durP2;ratioP2;P2;SDS_P1;SDS_P2;PMS_P1;PMS_P2;Temp;Humidity;BMP_temperature;BMP_pressure;BME280_temperature;BME280_humidity;BME280_pressure;Samples;Min_cycle;Max_cycle;Signal;HPM_P1;HPM_P2
2022/01/18 00:01:39;;;;;;;48.05;6.80;;;7.30;99.90;;;;;;5059229;28;20102;-71
2022/01/18 00:04:06;;;;;;;41.55;5.28;;;7.30;99.90;;;;;;5047897;28;20063;-72
2022/01/18 00:06:32;;;;;;;49.83;5.70;;;7.30;99.90;;;;;;5038392;28;20140;-72
2022/01/18 00:08:57;;;;;;;55.85;6.40;;;7.30;99.90;;;;;;5035748;28;20153;-74
2022/01/18 00:11:25;;;;;;;46.72;7.03;;;7.30;99.90;;;;;;5019208;28;20087;-74
2022/01/18 00:13:59;;;;;;;51.03;6.28;;;7.30;99.90;;;;;;5002846;28;20047;-71
2022/01/18 00:16:38;;;;;;;48.92;5.97;;;7.30;99.90;;;;;;5002680;28;20052;-72
2022/01/18 00:19:09;;;;;;;48.63;5.75;;;7.30;99.90;;;;;;5002734;28;20041;-72
2022/01/18 00:22:09;;;;;;;52.15;7.00;;;7.30;99.90;;;;;;5002428;28;20521;-72
2022/01/18 00:24:35;;;;;;;52.15;6.05;;;7.30;99.90;;;;;;5019122;28;20129;-72
2022/01/18 00:27:02;;;;;;;41.67;5.85;;;7.30;99.90;;;;;;5033352;28;20127;-72
2022/01/18 00:29:29;;;;;;;60.40;6.90;;;7.30;99.90;;;;;;5037272;28;20111;-72
2022/01/18 00:32:14;;;;;;;46.42;5.82;;;7.30;99.90;;;;;;5037935;28;20123;-72
2022/01/18 00:34:41;;;;;;;45.72;6.43;;;7.30;99.90;;;;;;5022057;28;20041;-71
2022/01/18 00:39:33;;;;;;;52.05;7.28;;;7.40;99.90;;;;;;5038143;28;20067;-72
2022/01/18 00:41:58;;;;;;;46.22;6.28;;;7.30;99.90;;;;;;5038076;28;20131;-72
2022/01/18 00:44:24;;;;;;;70.85;7.65;;;7.30;99.90;;;;;;5021690;28;20051;-74
2022/01/18 00:46:51;;;;;;;60.50;8.32;;;7.30;99.90;;;;;;5038055;28;20048;-73
2022/01/18 00:49:17;;;;;;;54.58;6.72;;;7.30;99.90;;;;;;5038439;28;20037;-72
2022/01/18 00:51:49;;;;;;;61.72;7.25;;;7.30;99.90;;;;;;5021548;28;20554;-72
2022/01/18 00:54:21;;;;;;;46.22;6.35;;;7.30;99.90;;;;;;5021750;28;20090;-75
2022/01/18 00:56:51;;;;;;;51.47;7.25;;;7.30;99.90;;;;;;5020750;28;20128;-71
2022/01/18 00:59:17;;;;;;;53.28;6.70;;;7.30;99.90;;;;;;5037654;28;20045;-72
2022/01/18 01:01:42;;;;;;;54.92;7.25;;;7.30;99.90;;;;;;5037890;28;20064;-73
2022/01/18 01:04:08;;;;;;;53.13;7.90;;;7.20;99.90;;;;;;5049002;28;20048;-72
2022/01/18 01:06:34;;;;;;;67.30;7.82;;;7.20;99.90;;;;;;5057980;28;20499;-72
2022/01/18 01:09:01;;;;;;;64.28;8.38;;;7.20;99.90;;;;;;5057688;28;20044;-72
2022/01/18 01:11:28;;;;;;;53.15;8.10;;;7.20;99.90;;;;;;5057314;28;20090;-72
2022/01/18 01:13:58;;;;;;;45.20;6.47;;;7.20;99.90;;;;;;5041309;28;20054;-72
2022/01/18 01:19:14;;;;;;;63.88;7.85;;;7.10;99.90;;;;;;5057958;28;20079;-72
2022/01/18 01:46:08;;;;;;;51.53;7.57;;;6.90;99.90;;;;;;5033492;28;20055;-71
2022/01/18 01:48:34;;;;;;;62.65;9.77;;;6.90;99.90;;;;;;5056880;28;20036;-72
2022/01/18 01:51:04;;;;;;;53.53;8.10;;;6.90;99.90;;;;;;5056613;28;20048;-72
2022/01/18 01:53:33;;;;;;;58.75;8.18;;;6.90;99.90;;;;;;5056740;28;20040;-71
2022/01/18 01:56:00;;;;;;;53.20;7.75;;;6.80;99.90;;;;;;5037919;28;20040;-73
2022/01/18 01:58:27;;;;;;;52.60;8.23;;;6.80;99.90;;;;;;5056944;28;20040;-73
2022/01/18 02:00:57;;;;;;;58.63;8.05;;;6.80;99.90;;;;;;5040164;28;20036;-73
2022/01/18 02:03:23;;;;;;;61.95;7.13;;;6.80;99.90;;;;;;5034195;28;20052;-72
2022/01/18 02:05:49;;;;;;;65.40;8.48;;;6.80;99.90;;;;;;5036657;28;20482;-73
2022/01/18 02:08:16;;;;;;;59.10;7.70;;;6.80;99.90;;;;;;5037303;28;20041;-72
2022/01/18 02:10:43;;;;;;;57.25;8.65;;;6.80;99.90;;;;;;5036556;28;20132;-74
2022/01/18 02:13:11;;;;;;;64.70;7.65;;;6.80;99.90;;;;;;5020119;28;20040;-72
2022/01/18 02:15:41;;;;;;;55.65;9.13;;;6.80;99.90;;;;;;5036125;28;20128;-72
2022/01/18 02:23:36;;;;;;;67.50;8.48;;;6.70;99.90;;;;;;5035836;28;20399;-73
2022/01/18 02:26:03;;;;;;;66.97;8.40;;;6.70;99.90;;;;;;5031999;28;20037;-72
2022/01/18 02:28:29;;;;;;;63.15;8.25;;;6.70;99.90;;;;;;5035530;28;20128;-74
2022/01/18 02:30:56;;;;;;;72.55;9.20;;;6.60;99.90;;;;;;5019885;28;20136;-74
2022/01/18 02:33:22;;;;;;;71.22;8.63;;;6.60;99.90;;;;;;5036456;28;20041;-74
2022/01/18 02:35:48;;;;;;;60.17;8.82;;;6.60;99.90;;;;;;5036241;28;20051;-72
2022/01/18 02:38:14;;;;;;;72.35;10.25;;;6.60;99.90;;;;;;5019595;28;20087;-71
2022/01/18 02:40:40;;;;;;;48.53;8.23;;;6.60;99.90;;;;;;5019617;28;20080;-73
2022/01/18 02:45:54;;;;;;;57.10;9.13;;;6.50;99.90;;;;;;5035643;28;20561;-72
2022/01/18 02:48:21;;;;;;;53.08;8.27;;;6.50;99.90;;;;;;5018899;28;20483;-72
2022/01/18 02:50:48;;;;;;;53.92;8.52;;;6.50;99.90;;;;;;5031879;28;20124;-73
2022/01/18 02:53:16;;;;;;;52.10;9.63;;;6.50;99.90;;;;;;4999128;28;20056;-72
2022/01/18 02:55:43;;;;;;;63.00;8.90;;;6.50;99.90;;;;;;5000263;28;20041;-74
2022/01/18 02:58:10;;;;;;;63.35;9.95;;;6.40;99.90;;;;;;5016863;28;20056;-72
2022/01/18 03:03:10;;;;;;;59.60;9.40;;;6.40;99.90;;;;;;5013635;28;20033;-74
2022/01/18 03:03:30;;;;;;;51.22;8.45;;;6.40;99.90;;;;;;5041441;28;20053;-72
2022/01/18 03:05:57;;;;;;;64.25;9.85;;;6.40;99.90;;;;;;5055444;28;20492;-73
2022/01/18 03:08:24;;;;;;;47.92;8.80;;;6.40;99.90;;;;;;5055372;28;20429;-72
2022/01/18 03:10:50;;;;;;;54.08;8.30;;;6.40;99.90;;;;;;5055929;28;20073;-73
2022/01/18 03:13:17;;;;;;;59.50;8.57;;;6.40;99.90;;;;;;5056069;28;20036;-73
2022/01/18 03:15:43;;;;;;;70.45;9.60;;;6.30;99.90;;;;;;5038573;28;20058;-71
2022/01/18 03:18:09;;;;;;;58.92;9.05;;;6.30;99.90;;;;;;5055486;28;20044;-72
2022/01/18 03:20:36;;;;;;;43.42;8.38;;;6.40;99.90;;;;;;5038767;28;20044;-72
2022/01/18 03:23:07;;;;;;;51.15;9.18;;;6.40;99.90;;;;;;5055055;28;20062;-73
2022/01/18 03:28:05;;;;;;;52.38;9.48;;;6.30;99.90;;;;;;5055651;28;20040;-72
2022/01/18 03:30:38;;;;;;;60.15;10.20;;;6.30;99.90;;;;;;5055308;28;20149;-73
2022/01/18 03:33:06;;;;;;;52.70;8.80;;;6.30;99.90;;;;;;5055178;28;20079;-71
2022/01/18 03:35:32;;;;;;;48.22;9.43;;;6.30;99.90;;;;;;5038943;28;20177;-74
2022/01/18 03:37:58;;;;;;;55.58;9.32;;;6.30;99.90;;;;;;5039019;28;20387;-71
2022/01/18 03:40:24;;;;;;;56.60;10.25;;;6.30;99.90;;;;;;5055853;28;20544;-71
2022/01/18 03:42:51;;;;;;;58.80;9.35;;;6.30;99.90;;;;;;5055094;28;20072;-72
2022/01/18 03:45:24;;;;;;;49.58;9.15;;;6.30;99.90;;;;;;5051543;28;20079;-74
2022/01/18 03:47:50;;;;;;;48.03;7.85;;;6.30;99.90;;;;;;5018741;28;20041;-72
2022/01/18 03:50:17;;;;;;;44.25;7.97;;;6.30;99.90;;;;;;5018822;28;20474;-71
2022/01/18 03:52:46;;;;;;;50.65;8.90;;;6.30;99.90;;;;;;5035550;28;20049;-72
2022/01/18 03:55:13;;;;;;;60.92;9.10;;;6.30;99.90;;;;;;5035290;28;20079;-72
2022/01/18 03:57:39;;;;;;;57.80;9.23;;;6.30;99.90;;;;;;5035447;28;20105;-72
2022/01/18 04:00:09;;;;;;;50.30;8.38;;;6.30;99.90;;;;;;5030546;28;20425;-71
2022/01/18 04:02:34;;;;;;;63.10;9.18;;;6.30;99.90;;;;;;5034671;28;20371;-72
2022/01/18 04:05:01;;;;;;;57.95;9.05;;;6.30;99.90;;;;;;5002855;28;20545;-72
2022/01/18 04:07:26;;;;;;;58.35;9.70;;;6.30;99.90;;;;;;5003026;28;20034;-74
2022/01/18 04:09:52;;;;;;;49.80;9.23;;;6.30;99.90;;;;;;5021933;28;20055;-72
2022/01/18 04:12:18;;;;;;;63.33;9.18;;;6.30;99.90;;;;;;5034980;28;20120;-72
2022/01/18 04:14:44;;;;;;;50.63;8.00;;;6.30;99.90;;;;;;5019250;28;20135;-72
2022/01/18 04:27:48;;;;;;;46.80;7.85;;;6.20;99.90;;;;;;5018789;28;20050;-72
2022/01/18 04:30:13;;;;;;;42.13;7.78;;;6.30;99.90;;;;;;5002457;28;20396;-73
2022/01/18 04:32:39;;;;;;;43.97;6.97;;;6.20;99.90;;;;;;5018769;28;20042;-74
2022/01/18 04:35:05;;;;;;;36.65;7.50;;;6.20;99.90;;;;;;5003668;28;20048;-72
2022/01/18 04:37:31;;;;;;;47.70;7.45;;;6.30;99.90;;;;;;5038179;28;20047;-72
2022/01/18 04:39:58;;;;;;;46.40;6.78;;;6.30;99.90;;;;;;5037739;28;20040;-73
2022/01/18 04:42:57;;;;;;;49.40;6.57;;;6.30;99.90;;;;;;5038357;28;20128;-73
2022/01/18 04:48:28;;;;;;;41.35;5.88;;;6.30;99.90;;;;;;5035150;28;20051;-74
2022/01/18 04:50:56;;;;;;;41.67;6.68;;;6.30;99.90;;;;;;5002147;28;20043;-72
2022/01/18 04:53:22;;;;;;;32.20;5.60;;;6.30;99.90;;;;;;5018463;28;20503;-72
2022/01/18 04:55:55;;;;;;;48.58;6.95;;;6.30;99.90;;;;;;5018064;28;20076;-72
2022/01/18 04:58:22;;;;;;;31.30;5.85;;;6.30;99.90;;;;;;5002004;28;20045;-72
2022/01/18 05:00:50;;;;;;;40.70;6.03;;;6.30;99.90;;;;;;5034372;28;20393;-73
2022/01/18 05:03:15;;;;;;;33.65;6.22;;;6.30;99.90;;;;;;5024111;28;20053;-73
2022/01/18 05:05:41;;;;;;;32.88;5.78;;;6.30;99.90;;;;;;5058229;28;20048;-72
2022/01/18 05:08:12;;;;;;;24.80;5.60;;;6.30;99.90;;;;;;5058172;28;20466;-72
2022/01/18 05:10:38;;;;;;;42.08;6.07;;;6.30;99.90;;;;;;5041334;28;20043;-72
2022/01/18 05:13:14;;;;;;;29.95;5.30;;;6.40;99.90;;;;;;5057604;28;20139;-73
2022/01/18 05:15:50;;;;;;;34.55;5.82;;;6.40;99.90;;;;;;5057196;28;20047;-71
2022/01/18 05:23:22;;;;;;;25.55;5.13;;;6.40;99.90;;;;;;5057181;28;20036;-72
2022/01/18 05:25:47;;;;;;;22.42;6.00;;;6.40;99.90;;;;;;5057321;28;20041;-73
2022/01/18 05:28:14;;;;;;;30.02;5.38;;;6.30;99.90;;;;;;5040736;28;20048;-73
2022/01/18 05:30:40;;;;;;;34.88;6.40;;;6.40;99.90;;;;;;5040557;28;20110;-74
2022/01/18 05:33:07;;;;;;;41.90;6.65;;;6.40;99.90;;;;;;5053688;28;20387;-72
2022/01/18 05:35:35;;;;;;;39.60;6.53;;;6.30;99.90;;;;;;5037480;28;20047;-73
2022/01/18 05:38:01;;;;;;;33.60;6.45;;;6.30;99.90;;;;;;5020839;28;20084;-73
2022/01/18 05:40:27;;;;;;;29.85;6.10;;;6.30;99.90;;;;;;5020539;28;20088;-72
2022/01/18 05:42:53;;;;;;;25.30;5.97;;;6.30;99.90;;;;;;5020781;28;20040;-72
2022/01/18 05:45:19;;;;;;;23.02;5.60;;;6.30;99.90;;;;;;5037292;28;20257;-73
2022/01/18 05:47:45;;;;;;;24.33;5.03;;;6.30;99.90;;;;;;5037294;28;20057;-71
2022/01/18 05:50:13;;;;;;;34.80;6.55;;;6.30;99.90;;;;;;5037128;28;20037;-72
2022/01/18 05:52:40;;;;;;;37.65;8.00;;;6.30;99.90;;;;;;5020505;28;20084;-72
2022/01/18 05:55:07;;;;;;;37.20;10.85;;;6.30;99.90;;;;;;5020209;28;20045;-74
2022/01/18 05:57:33;;;;;;;45.95;13.57;;;6.30;99.90;;;;;;5020729;28;20095;-74
2022/01/18 06:00:05;;;;;;;30.52;6.05;;;6.30;99.90;;;;;;5037407;28;20080;-74
2022/01/18 06:02:47;;;;;;;31.63;5.90;;;6.30;99.90;;;;;;5036948;28;20040;-72
2022/01/18 06:08:00;;;;;;;29.50;6.47;;;6.30;99.90;;;;;;5036874;28;20045;-72
2022/01/18 06:10:26;;;;;;;23.40;6.35;;;6.30;99.90;;;;;;5020836;28;20087;-71
2022/01/18 06:12:52;;;;;;;29.13;5.72;;;6.30;99.90;;;;;;5020231;28;20033;-73
2022/01/18 06:15:18;;;;;;;32.05;6.18;;;6.20;99.90;;;;;;5036547;28;20047;-72
2022/01/18 06:17:45;;;;;;;23.38;5.53;;;6.30;99.90;;;;;;5036437;28;20395;-75
2022/01/18 06:20:11;;;;;;;24.67;5.47;;;6.30;99.90;;;;;;5035989;28;20361;-75
2022/01/18 06:22:37;;;;;;;26.55;4.65;;;6.30;99.90;;;;;;5036225;28;20033;-72
2022/01/18 06:25:04;;;;;;;26.45;6.82;;;6.20;99.90;;;;;;5019332;28;20048;-72
2022/01/18 06:27:30;;;;;;;23.90;5.43;;;6.30;99.90;;;;;;5019422;28;20049;-72
2022/01/18 06:29:56;;;;;;;29.38;5.13;;;6.20;99.90;;;;;;5019904;28;20052;-73
2022/01/18 06:32:22;;;;;;;26.52;6.65;;;6.30;99.90;;;;;;5036164;28;20049;-72
2022/01/18 06:34:48;;;;;;;31.27;5.20;;;6.20;99.90;;;;;;5032261;28;20064;-73
2022/01/18 06:37:13;;;;;;;31.58;5.68;;;6.20;99.90;;;;;;5018355;28;20479;-72
2022/01/18 06:39:39;;;;;;;26.73;5.22;;;6.20;99.90;;;;;;5036199;28;20451;-72
2022/01/18 06:42:05;;;;;;;34.45;5.28;;;6.20;99.90;;;;;;5036085;28;20048;-73
2022/01/18 06:44:31;;;;;;;38.35;5.18;;;6.20;99.90;;;;;;5019693;28;20048;-73
2022/01/18 06:46:57;;;;;;;27.45;5.60;;;6.20;99.90;;;;;;5036297;28;20045;-72
2022/01/18 06:49:23;;;;;;;30.90;5.53;;;6.20;99.90;;;;;;5035687;28;20040;-72
2022/01/18 06:51:49;;;;;;;29.33;5.68;;;6.20;99.90;;;;;;5036283;28;20041;-72
2022/01/18 06:54:16;;;;;;;29.40;5.82;;;6.20;99.90;;;;;;5019678;28;20052;-72
2022/01/18 06:56:45;;;;;;;27.40;6.20;;;6.20;99.90;;;;;;5018905;28;20389;-72
2022/01/18 06:59:12;;;;;;;30.17;6.20;;;6.20;99.90;;;;;;5016339;28;20041;-73
2022/01/18 07:01:38;;;;;;;26.98;5.70;;;6.10;99.90;;;;;;5015918;28;20375;-72
2022/01/18 07:04:03;;;;;;;33.67;6.85;;;6.10;99.90;;;;;;5009834;28;20222;-72
2022/01/18 07:06:29;;;;;;;29.60;6.03;;;6.10;99.90;;;;;;5035601;28;20395;-72
2022/01/18 07:08:55;;;;;;;28.58;6.93;;;6.10;99.90;;;;;;5035826;28;20053;-72
2022/01/18 07:11:21;;;;;;;28.50;6.38;;;6.10;99.90;;;;;;5049425;28;20041;-72
2022/01/18 07:13:46;;;;;;;29.23;6.85;;;6.10;99.90;;;;;;5055785;28;20047;-74
2022/01/18 07:16:12;;;;;;;31.23;7.63;;;6.10;99.90;;;;;;5089170;28;20454;-72
2022/01/18 07:18:38;;;;;;;25.75;7.25;;;6.10;99.90;;;;;;5089137;28;20451;-72
2022/01/18 07:21:04;;;;;;;31.08;7.57;;;6.10;99.90;;;;;;5058849;28;20032;-72
2022/01/18 07:23:30;;;;;;;25.98;7.18;;;6.10;99.90;;;;;;5055202;28;20040;-74
2022/01/18 07:25:55;;;;;;;23.75;6.03;;;6.10;99.90;;;;;;5054591;28;20409;-72
2022/01/18 07:28:22;;;;;;;23.48;6.18;;;6.10;99.90;;;;;;5035593;28;20132;-73
2022/01/18 07:30:48;;;;;;;30.40;6.35;;;6.00;99.90;;;;;;5035636;28;20581;-71
2022/01/18 07:33:16;;;;;;;27.55;5.93;;;6.00;99.90;;;;;;5035380;28;20052;-72
2022/01/18 07:35:42;;;;;;;27.50;6.50;;;6.00;99.90;;;;;;5035403;28;20037;-74
2022/01/18 07:38:12;;;;;;;24.10;6.65;;;6.00;99.90;;;;;;5036886;28;20072;-73
2022/01/18 07:40:39;;;;;;;26.85;6.78;;;6.00;99.90;;;;;;5059657;28;20049;-73
2022/01/18 07:43:05;;;;;;;27.98;6.90;;;6.00;99.90;;;;;;5042501;28;20045;-72
2022/01/18 07:45:31;;;;;;;22.75;6.53;;;6.10;99.90;;;;;;5059152;28;20056;-72
2022/01/18 07:47:57;;;;;;;37.42;8.27;;;6.00;99.90;;;;;;5042746;28;20052;-74
2022/01/18 07:50:23;;;;;;;30.40;7.35;;;6.00;99.90;;;;;;5042147;28;20040;-72
2022/01/18 07:52:49;;;;;;;30.25;8.02;;;6.00;99.90;;;;;;5058635;28;20041;-71
2022/01/18 07:55:15;;;;;;;31.27;7.95;;;6.00;99.90;;;;;;5026958;28;20040;-73
2022/01/18 07:57:43;;;;;;;31.08;7.07;;;5.90;99.90;;;;;;5057323;28;20036;-72
2022/01/18 08:00:11;;;;;;;31.70;7.50;;;5.90;99.90;;;;;;5058637;28;20040;-72
2022/01/18 08:02:37;;;;;;;37.70;7.65;;;6.00;99.90;;;;;;5059597;28;20106;-72
2022/01/18 08:05:07;;;;;;;25.40;7.20;;;5.90;99.90;;;;;;5041050;28;20120;-72
2022/01/18 08:07:33;;;;;;;36.83;8.25;;;5.90;99.90;;;;;;5058803;28;20733;-73
2022/01/18 08:09:59;;;;;;;27.75;7.45;;;5.90;99.90;;;;;;5058132;28;20890;-72
2022/01/18 08:12:25;;;;;;;29.55;7.30;;;5.90;99.90;;;;;;5057573;28;20119;-73
2022/01/18 08:14:54;;;;;;;24.05;6.82;;;5.90;99.90;;;;;;5054998;28;20056;-73
2022/01/18 08:17:22;;;;;;;30.43;7.00;;;5.90;99.90;;;;;;5057142;28;20055;-73
2022/01/18 08:19:48;;;;;;;21.88;7.03;;;5.90;99.90;;;;;;5053389;28;20291;-72
2022/01/18 08:22:14;;;;;;;24.77;7.55;;;5.90;99.90;;;;;;5022160;28;20033;-72
2022/01/18 08:24:40;;;;;;;24.35;7.10;;;5.90;99.90;;;;;;5039026;28;20041;-72
2022/01/18 08:27:06;;;;;;;30.33;7.22;;;5.90;99.90;;;;;;5038604;28;20041;-73
2022/01/18 08:29:32;;;;;;;28.13;7.40;;;5.90;99.90;;;;;;5038192;28;20080;-73
2022/01/18 08:31:58;;;;;;;31.05;8.55;;;5.90;99.90;;;;;;5043739;28;20123;-74
2022/01/18 08:34:24;;;;;;;36.85;7.88;;;5.90;99.90;;;;;;5036432;28;20124;-72
2022/01/18 08:36:51;;;;;;;31.95;8.00;;;5.90;99.90;;;;;;5057480;28;20477;-71
2022/01/18 08:39:17;;;;;;;31.23;9.50;;;5.90;99.90;;;;;;5046878;28;20040;-72
2022/01/18 08:41:42;;;;;;;33.17;7.88;;;5.90;99.90;;;;;;5054346;28;20047;-72
2022/01/18 08:44:08;;;;;;;35.97;9.02;;;5.90;99.90;;;;;;5022570;28;20529;-72
2022/01/18 08:46:34;;;;;;;36.75;9.40;;;5.90;99.90;;;;;;5054840;28;20514;-72
2022/01/18 08:49:00;;;;;;;30.80;8.75;;;5.90;99.90;;;;;;5058489;28;20036;-72
2022/01/18 08:51:27;;;;;;;34.30;8.75;;;5.90;99.90;;;;;;5057043;28;20475;-71
2022/01/18 08:53:53;;;;;;;34.78;8.68;;;5.90;99.90;;;;;;5040620;28;20041;-72
2022/01/18 08:56:20;;;;;;;31.45;8.25;;;5.90;99.90;;;;;;5043013;28;20478;-71
2022/01/18 08:58:47;;;;;;;28.48;8.05;;;5.90;99.90;;;;;;5057560;28;20368;-72
2022/01/18 09:01:14;;;;;;;23.00;8.55;;;5.90;99.90;;;;;;5058265;28;20049;-72
2022/01/18 09:03:39;;;;;;;34.92;8.95;;;5.90;99.90;;;;;;5057524;28;20131;-71
2022/01/18 09:06:06;;;;;;;33.63;8.95;;;5.90;99.90;;;;;;5057946;28;20148;-72
2022/01/18 09:08:33;;;;;;;33.03;8.85;;;5.90;99.90;;;;;;5057823;28;20040;-72
2022/01/18 09:10:59;;;;;;;38.53;9.85;;;5.90;99.90;;;;;;5041021;28;20033;-72
2022/01/18 09:13:24;;;;;;;29.75;9.40;;;5.90;99.90;;;;;;5057343;28;20390;-73
2022/01/18 09:15:51;;;;;;;32.97;9.30;;;5.90;99.90;;;;;;5057899;28;20040;-73
2022/01/18 09:18:18;;;;;;;28.80;8.93;;;6.00;99.90;;;;;;5057556;28;20414;-72
2022/01/18 09:20:44;;;;;;;31.25;9.00;;;5.90;99.90;;;;;;5057595;28;20482;-73
2022/01/18 09:23:10;;;;;;;28.08;8.05;;;6.00;99.90;;;;;;5057069;28;20072;-73
2022/01/18 09:25:36;;;;;;;31.75;8.48;;;6.00;99.90;;;;;;5040828;28;20052;-75
2022/01/18 09:28:03;;;;;;;28.15;8.10;;;6.00;99.90;;;;;;5056554;28;20506;-71
2022/01/18 09:30:30;;;;;;;29.60;8.35;;;6.00;99.90;;;;;;5057927;28;20079;-72
2022/01/18 09:32:58;;;;;;;26.90;8.45;;;6.10;99.90;;;;;;5057127;28;20132;-72
2022/01/18 09:35:25;;;;;;;24.58;8.40;;;6.10;99.90;;;;;;5057014;28;20040;-72
2022/01/18 09:37:52;;;;;;;27.77;7.70;;;6.10;99.90;;;;;;5056619;28;20075;-72
2022/01/18 09:40:20;;;;;;;27.38;8.60;;;6.10;99.90;;;;;;5057057;28;20109;-73
2022/01/18 09:42:54;;;;;;;29.73;7.60;;;6.20;99.90;;;;;;5039986;28;20879;-72
2022/01/18 09:45:21;;;;;;;25.60;7.55;;;6.20;99.90;;;;;;5057211;28;20050;-72
2022/01/18 09:47:48;;;;;;;25.48;7.57;;;6.30;99.90;;;;;;5057244;28;20045;-72
2022/01/18 09:50:17;;;;;;;24.08;7.72;;;6.30;99.90;;;;;;5056324;28;20037;-72
2022/01/18 09:52:43;;;;;;;22.63;7.77;;;6.30;99.90;;;;;;5056937;28;20032;-74
2022/01/18 09:55:09;;;;;;;31.25;7.95;;;6.30;99.90;;;;;;5055980;28;20294;-71
2022/01/18 09:57:36;;;;;;;29.48;7.53;;;6.30;99.90;;;;;;5055429;28;20033;-73
2022/01/18 10:00:04;;;;;;;19.98;7.45;;;6.40;99.90;;;;;;5040347;28;20047;-72
2022/01/18 10:02:29;;;;;;;26.45;7.43;;;6.40;99.90;;;;;;5040206;28;20040;-72
2022/01/18 10:04:58;;;;;;;30.05;7.93;;;6.40;99.90;;;;;;5056292;28;20063;-72
2022/01/18 10:07:34;;;;;;;29.10;9.27;;;6.40;99.90;;;;;;5056466;28;20032;-73
2022/01/18 10:10:05;;;;;;;33.78;8.98;;;6.40;99.90;;;;;;5039906;28;20044;-72
2022/01/18 10:12:31;;;;;;;22.95;7.85;;;6.40;99.90;;;;;;5039559;28;20074;-72
2022/01/18 10:15:01;;;;;;;31.33;7.85;;;6.40;99.90;;;;;;5056690;28;20079;-74
2022/01/18 10:17:35;;;;;;;26.42;8.02;;;6.50;99.90;;;;;;5056215;28;20051;-73
2022/01/18 10:20:12;;;;;;;25.20;8.55;;;6.50;99.90;;;;;;5056108;28;20052;-72
2022/01/18 10:22:43;;;;;;;23.63;8.10;;;6.60;99.90;;;;;;5056176;28;20501;-74
2022/01/18 10:25:17;;;;;;;21.08;7.55;;;6.60;99.90;;;;;;5052239;28;20079;-72
2022/01/18 10:27:47;;;;;;;26.63;8.18;;;6.60;99.90;;;;;;5036395;28;20119;-72
2022/01/18 10:30:20;;;;;;;24.50;7.65;;;6.60;99.90;;;;;;5036304;28;20044;-72
2022/01/18 10:33:01;;;;;;;26.63;8.55;;;6.60;99.90;;;;;;5036551;28;20045;-72
2022/01/18 10:35:26;;;;;;;18.17;7.82;;;6.60;99.90;;;;;;5066860;28;20052;-72
2022/01/18 10:37:53;;;;;;;26.08;8.68;;;6.60;99.90;;;;;;5056516;28;20036;-75
2022/01/18 10:40:19;;;;;;;18.20;8.07;;;6.70;99.90;;;;;;5054936;28;20497;-71
2022/01/18 10:42:51;;;;;;;27.75;8.43;;;6.70;99.90;;;;;;5056110;28;20041;-72
2022/01/18 10:45:30;;;;;;;22.17;8.35;;;6.70;99.90;;;;;;5039255;28;20048;-72
2022/01/18 10:48:13;;;;;;;23.67;8.70;;;6.70;99.90;;;;;;5039258;28;20502;-72
2022/01/18 10:50:42;;;;;;;20.23;8.57;;;6.80;99.90;;;;;;5055461;28;20086;-72
2022/01/18 10:53:12;;;;;;;23.67;7.93;;;6.80;99.90;;;;;;5056187;28;20044;-74
2022/01/18 10:55:38;;;;;;;25.52;9.80;;;6.90;99.90;;;;;;5055426;28;20044;-71
2022/01/18 10:58:19;;;;;;;22.98;8.75;;;6.90;99.90;;;;;;5055761;28;20387;-71
2022/01/18 11:00:45;;;;;;;25.75;9.07;;;6.90;99.90;;;;;;5055548;28;20135;-73
2022/01/18 11:03:11;;;;;;;23.67;9.05;;;6.90;99.90;;;;;;5038345;28;20060;-71
2022/01/18 11:05:43;;;;;;;22.50;8.60;;;6.90;99.90;;;;;;5055985;28;20131;-72
2022/01/18 11:08:09;;;;;;;28.88;10.25;;;6.90;99.90;;;;;;5055929;28;20037;-71
2022/01/18 11:10:41;;;;;;;25.40;9.63;;;7.00;99.90;;;;;;5051834;28;20044;-71
2022/01/18 11:13:13;;;;;;;25.10;9.70;;;7.00;99.90;;;;;;5018950;28;20406;-73
2022/01/18 11:15:45;;;;;;;26.90;8.50;;;7.00;99.90;;;;;;5035301;28;20048;-72
2022/01/18 11:18:28;;;;;;;19.88;8.05;;;7.10;99.90;;;;;;5019061;28;20052;-72
2022/01/18 11:20:54;;;;;;;18.00;7.35;;;7.10;99.90;;;;;;5018062;28;20124;-72
2022/01/18 11:23:23;;;;;;;20.20;6.82;;;7.10;99.90;;;;;;5034354;28;20494;-72
2022/01/18 11:25:52;;;;;;;16.17;7.30;;;7.10;99.90;;;;;;5046139;28;20040;-71
2022/01/18 11:28:18;;;;;;;20.30;7.20;;;7.10;99.90;;;;;;5036171;28;20045;-73
2022/01/18 11:30:47;;;;;;;18.27;6.30;;;7.10;99.90;;;;;;5054718;28;20085;-72
2022/01/18 11:33:18;;;;;;;16.75;7.00;;;7.10;99.90;;;;;;5054460;28;20044;-74
2022/01/18 11:35:51;;;;;;;18.27;6.10;;;7.10;99.90;;;;;;5054655;28;20048;-72
2022/01/18 11:38:26;;;;;;;14.90;5.43;;;7.20;99.90;;;;;;5054414;28;20080;-72
2022/01/18 11:40:54;;;;;;;9.50;2.22;;;7.20;99.90;;;;;;5037403;28;20091;-72
2022/01/18 11:43:41;;;;;;;13.20;2.40;;;7.10;99.90;;;;;;5050598;28;20033;-72
2022/01/18 11:46:30;;;;;;;11.27;3.38;;;7.10;99.90;;;;;;5050913;28;20051;-72
2022/01/18 11:49:04;;;;;;;14.25;4.18;;;7.10;99.90;;;;;;5018334;28;20041;-71
2022/01/18 11:51:44;;;;;;;16.70;4.60;;;7.10;99.90;;;;;;5033273;28;20049;-72
2022/01/18 11:57:02;;;;;;;10.70;2.78;;;7.10;99.90;;;;;;5034113;28;20394;-72
2022/01/18 11:59:36;;;;;;;13.18;3.40;;;7.10;99.90;;;;;;5033933;28;20052;-72
2022/01/18 12:02:04;;;;;;;10.93;2.58;;;7.10;99.90;;;;;;5034553;28;20051;-72
2022/01/18 12:04:40;;;;;;;11.98;2.70;;;7.10;99.90;;;;;;5034187;28;20471;-71
2022/01/18 12:07:10;;;;;;;8.13;2.45;;;7.10;99.90;;;;;;5034458;28;20044;-72
2022/01/18 12:09:43;;;;;;;13.07;2.45;;;7.00;99.90;;;;;;5039920;28;20041;-72
2022/01/18 12:12:40;;;;;;;10.93;2.45;;;7.10;99.90;;;;;;5053372;28;20048;-73
2022/01/18 12:15:26;;;;;;;9.15;2.95;;;7.10;99.90;;;;;;5037686;28;20052;-72
2022/01/18 12:17:56;;;;;;;9.93;2.80;;;7.10;99.90;;;;;;5037331;28;20140;-72
2022/01/18 12:20:49;;;;;;;9.02;3.13;;;7.10;99.90;;;;;;5054148;28;20493;-73
2022/01/18 12:23:21;;;;;;;12.00;3.33;;;7.10;99.90;;;;;;5037190;28;20044;-72
2022/01/18 12:26:14;;;;;;;9.55;2.85;;;7.10;99.90;;;;;;5050221;28;20438;-72
2022/01/18 12:29:07;;;;;;;10.18;3.05;;;7.10;99.90;;;;;;5037582;28;20083;-72
2022/01/18 12:34:38;;;;;;;10.10;2.60;;;7.10;99.90;;;;;;5053913;28;20060;-72
2022/01/18 12:39:50;;;;;;;12.02;2.88;;;7.00;99.90;;;;;;5044237;28;20094;-72
2022/01/18 12:45:22;;;;;;;9.15;2.90;;;7.10;99.90;;;;;;5036725;28;20044;-74
2022/01/18 12:48:04;;;;;;;10.88;3.25;;;7.00;99.90;;;;;;5057399;28;20040;-72
2022/01/18 12:50:35;;;;;;;12.32;3.30;;;7.00;99.90;;;;;;5057213;28;20036;-72
2022/01/18 12:53:11;;;;;;;16.27;3.55;;;7.00;99.90;;;;;;5056957;28;20044;-72
2022/01/18 12:55:46;;;;;;;15.63;4.63;;;7.00;99.90;;;;;;5056559;28;20488;-72
2022/01/18 12:58:35;;;;;;;14.30;3.75;;;6.90;99.90;;;;;;5057151;28;20040;-72
2022/01/18 13:01:05;;;;;;;12.40;3.97;;;6.90;99.90;;;;;;5053777;28;20464;-74
2022/01/18 13:03:34;;;;;;;13.93;3.72;;;6.90;99.90;;;;;;5036827;28;20458;-73
2022/01/18 13:06:03;;;;;;;16.67;3.97;;;6.90;99.90;;;;;;5037213;28;20048;-72
2022/01/18 13:08:55;;;;;;;12.73;3.83;;;6.90;99.90;;;;;;5020613;28;20044;-72
2022/01/18 13:11:32;;;;;;;15.55;4.13;;;6.90;99.90;;;;;;5055465;28;20067;-73
2022/01/18 13:14:08;;;;;;;11.95;3.72;;;6.90;99.90;;;;;;5040451;28;20044;-73
2022/01/18 13:27:29;;;;;;;18.73;4.65;;;6.80;99.90;;;;;;5056562;28;20036;-73
2022/01/18 13:30:20;;;;;;;15.75;4.15;;;6.80;99.90;;;;;;5056673;28;20044;-72
2022/01/18 13:32:47;;;;;;;13.82;3.50;;;6.80;99.90;;;;;;5039160;28;20410;-72
2022/01/18 13:35:15;;;;;;;11.75;3.33;;;6.70;99.90;;;;;;5040096;28;20081;-72
2022/01/18 13:37:41;;;;;;;19.40;3.95;;;6.70;99.90;;;;;;5056086;28;20119;-73
2022/01/18 13:40:15;;;;;;;16.67;4.15;;;6.70;99.90;;;;;;5055737;28;20131;-72
2022/01/18 13:42:43;;;;;;;18.23;4.68;;;6.70;99.90;;;;;;5056181;28;20395;-71
2022/01/18 13:45:12;;;;;;;18.40;4.93;;;6.60;99.90;;;;;;5039330;28;20048;-71
2022/01/18 13:47:42;;;;;;;18.05;4.40;;;6.60;99.90;;;;;;5056140;28;20048;-74
2022/01/18 13:50:55;;;;;;;19.25;5.18;;;6.60;99.90;;;;;;5056221;28;20044;-72
2022/01/18 13:53:28;;;;;;;13.63;4.32;;;6.60;99.90;;;;;;5053131;28;20060;-72
2022/01/18 13:55:58;;;;;;;18.40;4.82;;;6.50;99.90;;;;;;5038873;28;20044;-72
2022/01/18 13:58:28;;;;;;;20.63;4.75;;;6.50;99.90;;;;;;5039568;28;20051;-73
2022/01/18 14:01:17;;;;;;;18.13;4.82;;;6.50;99.90;;;;;;5056014;28;20348;-72
2022/01/18 14:04:13;;;;;;;15.80;4.15;;;6.60;99.90;;;;;;5055536;28;20052;-72
2022/01/18 14:06:41;;;;;;;12.50;4.07;;;6.50;99.90;;;;;;5056022;28;20036;-72
2022/01/18 14:09:08;;;;;;;16.55;4.53;;;6.50;99.90;;;;;;5033527;28;20052;-72
2022/01/18 14:11:36;;;;;;;16.77;4.10;;;6.50;99.90;;;;;;5055544;28;20051;-72
2022/01/18 14:14:18;;;;;;;17.20;5.13;;;6.60;99.90;;;;;;5038837;28;20041;-72
2022/01/18 14:16:47;;;;;;;20.33;5.22;;;6.60;99.90;;;;;;5055963;28;20040;-74
2022/01/18 14:19:13;;;;;;;17.95;5.32;;;6.50;99.90;;;;;;5055530;28;20490;-74
2022/01/18 14:21:47;;;;;;;18.15;4.72;;;6.50;99.90;;;;;;5055475;28;20051;-72
2022/01/18 14:24:38;;;;;;;17.98;4.32;;;6.60;99.90;;;;;;5054486;28;20039;-71